createdAt,value
2022-09-04T00:00:17.744Z,9.68
2022-09-04T00:03:14.535Z,12.60
2022-09-04T00:05:50.410Z,13.45
2022-09-04T00:08:39.610Z,14.25
2022-09-04T00:11:32.454Z,16.92
2022-09-04T00:14:09.743Z,14.30
2022-09-04T00:16:44.877Z,15.10
2022-09-04T00:19:35.511Z,12.48
2022-09-04T00:22:17.823Z,11.95
2022-09-04T00:27:30.047Z,19.65
2022-09-04T00:30:10.580Z,8.90
2022-09-04T00:33:00.058Z,12.48
2022-09-04T00:35:39.393Z,13.20
2022-09-04T00:38:37.458Z,10.55
2022-09-04T00:41:33.883Z,17.40
2022-09-04T00:44:23.792Z,10.38
2022-09-04T00:47:10.191Z,12.27
2022-09-04T00:49:41.446Z,19.75
2022-09-04T00:52:37.225Z,16.43
2022-09-04T00:55:17.684Z,13.85
2022-09-04T00:58:01.070Z,8.95
2022-09-04T01:00:29.525Z,11.73
2022-09-04T01:03:14.921Z,15.05
2022-09-04T01:06:05.942Z,11.23
2022-09-04T01:09:19.211Z,11.73
2022-09-04T01:12:13.270Z,16.60
2022-09-04T01:15:13.417Z,9.00
2022-09-04T01:17:54.262Z,8.98
2022-09-04T01:20:22.514Z,19.35
2022-09-04T01:23:11.914Z,10.13
2022-09-04T01:26:01.956Z,12.02
2022-09-04T01:28:55.599Z,13.80
2022-09-04T01:31:56.418Z,16.95
2022-09-04T01:34:43.184Z,12.00
2022-09-04T01:37:34.338Z,12.88
2022-09-04T01:40:35.633Z,10.30
2022-09-04T01:43:11.820Z,9.60
2022-09-04T01:45:58.133Z,10.35
2022-09-04T01:48:44.574Z,8.95
2022-09-04T01:51:42.196Z,8.75
2022-09-04T01:54:38.677Z,13.60
2022-09-04T01:57:31.394Z,11.13
2022-09-04T02:00:24.945Z,11.75
2022-09-04T02:03:02.503Z,13.20
2022-09-04T02:05:47.172Z,13.80
2022-09-04T02:08:33.738Z,16.00
2022-09-04T02:11:11.044Z,17.10
2022-09-04T02:13:57.572Z,14.00
2022-09-04T02:16:45.779Z,13.82
2022-09-04T02:19:27.240Z,11.48
2022-09-04T02:22:21.802Z,11.73
2022-09-04T02:25:15.800Z,8.98
2022-09-04T02:28:21.179Z,9.93
2022-09-04T02:31:01.309Z,9.93
2022-09-04T02:33:58.658Z,18.50
2022-09-04T02:36:37.476Z,10.18
2022-09-04T02:39:34.744Z,12.95
2022-09-04T02:42:13.428Z,12.25
2022-09-04T02:45:29.380Z,10.52
2022-09-04T02:48:23.484Z,13.38
2022-09-04T02:51:00.516Z,18.75
2022-09-04T02:53:53.646Z,11.20
2022-09-04T02:56:34.169Z,11.60
2022-09-04T02:59:17.646Z,15.02
2022-09-04T03:02:00.752Z,14.20
2022-09-04T03:04:53.629Z,11.65
2022-09-04T03:07:39.978Z,15.18
2022-09-04T03:10:18.965Z,10.73
2022-09-04T03:12:50.135Z,13.20
2022-09-04T03:15:21.326Z,12.68
2022-09-04T03:18:16.270Z,11.35
2022-09-04T03:20:59.126Z,11.07
2022-09-04T03:26:27.615Z,17.50
2022-09-04T03:29:02.751Z,16.88
2022-09-04T03:31:41.385Z,16.17
2022-09-04T03:34:18.700Z,20.95
2022-09-04T03:37:23.836Z,15.38
2022-09-04T03:39:52.178Z,24.02
2022-09-04T03:42:37.513Z,15.23
2022-09-04T03:45:24.284Z,18.27
2022-09-04T03:48:01.396Z,14.77
2022-09-04T03:50:42.570Z,16.85
2022-09-04T03:53:22.939Z,17.33
2022-09-04T03:56:10.350Z,17.75
2022-09-04T03:59:05.257Z,16.95
2022-09-04T04:01:41.854Z,17.33
2022-09-04T04:04:28.170Z,15.30
2022-09-04T04:07:11.260Z,19.73
2022-09-04T04:10:15.055Z,18.70
2022-09-04T04:12:52.115Z,15.70
2022-09-04T04:15:45.584Z,20.30
2022-09-04T04:18:31.828Z,17.05
2022-09-04T04:21:36.979Z,15.77
2022-09-04T04:24:24.492Z,19.00
2022-09-04T04:27:28.678Z,18.65
2022-09-04T04:30:16.364Z,19.58
2022-09-04T04:33:18.351Z,22.33
2022-09-04T04:36:12.817Z,18.48
2022-09-04T04:39:10.439Z,22.23
2022-09-04T04:41:58.752Z,18.30
2022-09-04T04:44:39.277Z,20.65
2022-09-04T04:47:39.760Z,19.45
2022-09-04T04:50:25.268Z,22.20
2022-09-04T04:53:12.179Z,24.38
2022-09-04T04:56:06.010Z,19.48
2022-09-04T04:58:56.622Z,20.00
2022-09-04T05:01:43.440Z,18.45
2022-09-04T05:04:14.543Z,25.02
2022-09-04T05:07:33.306Z,25.25
2022-09-04T05:10:21.001Z,21.42
2022-09-04T05:13:16.783Z,29.08
2022-09-04T05:16:09.342Z,37.15
2022-09-04T05:18:38.051Z,29.27
2022-09-04T05:21:20.638Z,21.90
2022-09-04T05:23:57.099Z,21.85
2022-09-04T05:26:58.418Z,27.65
2022-09-04T05:29:51.024Z,31.40
2022-09-04T05:32:26.908Z,27.95
2022-09-04T05:35:31.928Z,25.67
2022-09-04T05:38:37.474Z,20.58
2022-09-04T05:41:08.527Z,27.95
2022-09-04T05:43:55.289Z,17.60
2022-09-04T05:46:52.022Z,17.48
2022-09-04T05:49:49.936Z,19.35
2022-09-04T05:52:37.577Z,17.08
2022-09-04T05:55:11.877Z,25.05
2022-09-04T05:57:52.197Z,20.42
2022-09-04T06:00:21.680Z,22.20
2022-09-04T06:03:19.704Z,24.33
2022-09-04T06:06:14.616Z,32.53
2022-09-04T06:08:57.562Z,25.95
2022-09-04T06:11:47.607Z,25.20
2022-09-04T06:14:29.484Z,28.00
2022-09-04T06:17:20.688Z,34.15
2022-09-04T06:20:10.917Z,28.75
2022-09-04T06:22:55.813Z,29.15
2022-09-04T06:25:50.506Z,27.02
2022-09-04T06:28:24.954Z,29.20
2022-09-04T06:31:19.529Z,23.30
2022-09-04T06:34:01.643Z,21.67
2022-09-04T06:36:51.180Z,19.45
2022-09-04T06:39:32.786Z,24.42
2022-09-04T06:42:28.754Z,20.48
2022-09-04T06:45:15.709Z,28.52
2022-09-04T06:48:18.019Z,31.52
2022-09-04T06:51:14.299Z,32.95
2022-09-04T06:54:10.309Z,29.70
2022-09-04T06:57:09.427Z,25.52
2022-09-04T06:59:59.326Z,42.97
2022-09-04T07:02:33.587Z,35.75
2022-09-04T07:05:27.893Z,27.05
2022-09-04T07:08:19.054Z,29.20
2022-09-04T07:11:03.041Z,34.95
2022-09-04T07:13:47.095Z,32.35
2022-09-04T07:16:36.979Z,49.40
2022-09-04T07:19:32.606Z,50.88
2022-09-04T07:22:03.725Z,39.33
2022-09-04T07:24:50.470Z,33.67
2022-09-04T07:27:35.733Z,29.50
2022-09-04T07:30:08.471Z,32.28
2022-09-04T07:32:36.712Z,31.85
2022-09-04T07:35:16.575Z,27.77
2022-09-04T07:38:13.398Z,27.92
2022-09-04T07:40:55.948Z,19.92
2022-09-04T07:43:57.497Z,25.58
2022-09-04T07:46:31.813Z,19.08
2022-09-04T07:49:21.186Z,22.92
2022-09-04T07:52:06.358Z,29.52
2022-09-04T07:54:40.575Z,20.90
2022-09-04T07:57:56.187Z,28.20
2022-09-04T08:00:24.569Z,25.90
2022-09-04T08:03:00.842Z,17.42
2022-09-04T08:05:34.381Z,19.15
2022-09-04T08:08:09.456Z,20.17
2022-09-04T08:10:57.692Z,23.80
2022-09-04T08:13:47.677Z,20.50
2022-09-04T08:16:19.111Z,20.88
2022-09-04T08:18:59.727Z,16.80
2022-09-04T08:21:43.883Z,18.98
2022-09-04T08:24:35.250Z,20.00
2022-09-04T08:27:15.371Z,27.25
2022-09-04T08:29:55.724Z,26.50
2022-09-04T08:32:38.474Z,21.85
2022-09-04T08:35:27.110Z,20.90
2022-09-04T08:38:32.237Z,15.50
2022-09-04T08:41:22.130Z,15.15
2022-09-04T08:44:08.761Z,17.52
2022-09-04T08:46:49.421Z,16.42
2022-09-04T08:49:33.230Z,11.23
2022-09-04T08:52:26.979Z,16.55
2022-09-04T08:55:06.673Z,15.27
2022-09-04T08:57:34.888Z,18.20
2022-09-04T09:00:09.105Z,14.20
2022-09-04T09:02:46.803Z,17.60
2022-09-04T09:05:52.029Z,13.32
2022-09-04T09:08:57.498Z,19.50
2022-09-04T09:11:37.635Z,20.23
2022-09-04T09:14:36.670Z,14.27
2022-09-04T09:17:35.059Z,17.67
2022-09-04T09:20:20.039Z,21.00
2022-09-04T09:23:25.438Z,13.10
2022-09-04T09:26:09.950Z,24.13
2022-09-04T09:29:15.894Z,14.02
2022-09-04T09:31:47.315Z,22.75
2022-09-04T09:34:39.699Z,26.25
2022-09-04T09:40:24.777Z,21.48
2022-09-04T09:43:28.987Z,36.58
2022-09-04T09:46:25.409Z,21.10
2022-09-04T09:49:00.568Z,18.27
2022-09-04T09:51:48.960Z,18.65
2022-09-04T09:54:51.039Z,20.90
2022-09-04T09:57:48.666Z,12.50
2022-09-04T10:00:18.595Z,12.55
2022-09-04T10:03:21.957Z,16.88
2022-09-04T10:06:09.154Z,16.52
2022-09-04T10:09:12.079Z,14.23
2022-09-04T10:11:55.650Z,17.90
2022-09-04T10:15:00.984Z,17.23
2022-09-04T10:18:06.130Z,18.45
2022-09-04T10:21:02.195Z,21.35
2022-09-04T10:23:48.856Z,11.32
2022-09-04T10:26:38.051Z,14.38
2022-09-04T10:29:28.790Z,12.70
2022-09-04T10:32:26.355Z,12.68
2022-09-04T10:35:09.697Z,14.82
2022-09-04T10:38:15.992Z,20.98
2022-09-04T10:40:59.833Z,19.17
2022-09-04T10:43:58.529Z,12.70
2022-09-04T10:46:38.974Z,16.33
2022-09-04T10:49:32.038Z,13.52
2022-09-04T10:52:37.647Z,17.10
2022-09-04T10:55:09.170Z,12.20
2022-09-04T10:57:46.395Z,16.50
2022-09-04T11:00:17.113Z,16.20
2022-09-04T11:03:06.938Z,14.48
2022-09-04T11:06:01.471Z,15.07
2022-09-04T11:08:47.997Z,16.25
2022-09-04T11:11:28.496Z,18.52
2022-09-04T11:14:29.737Z,16.17
2022-09-04T11:17:25.484Z,16.92
2022-09-04T11:20:21.470Z,16.48
2022-09-04T11:23:07.750Z,17.35
2022-09-04T11:26:06.405Z,16.33
2022-09-04T11:29:02.489Z,20.05
2022-09-04T11:31:48.787Z,22.15
2022-09-04T11:34:35.232Z,22.80
2022-09-04T11:37:16.092Z,24.80
2022-09-04T11:40:28.129Z,20.88
2022-09-04T11:43:33.091Z,18.58
2022-09-04T11:46:32.782Z,15.48
2022-09-04T11:49:10.233Z,20.98
2022-09-04T11:51:57.371Z,13.35
2022-09-04T11:54:37.537Z,13.75
2022-09-04T11:57:22.341Z,21.90
2022-09-04T12:00:07.439Z,19.42
2022-09-04T12:02:50.263Z,21.65
2022-09-04T12:05:36.883Z,15.30
2022-09-04T12:08:29.571Z,11.77
2022-09-04T12:11:16.532Z,14.15
2022-09-04T12:14:21.814Z,13.70
2022-09-04T12:17:15.267Z,18.05
2022-09-04T12:20:04.245Z,17.63
2022-09-04T12:23:15.445Z,16.90
2022-09-04T12:26:20.722Z,20.05
2022-09-04T12:29:10.490Z,24.52
2022-09-04T12:32:03.382Z,22.77
2022-09-04T12:35:15.296Z,22.58
2022-09-04T12:38:36.145Z,16.87
2022-09-04T12:41:13.432Z,15.75
2022-09-04T12:44:01.932Z,19.42
2022-09-04T13:01:31.281Z,16.50
2022-09-04T13:04:27.587Z,15.90
2022-09-04T13:07:20.953Z,16.17
2022-09-04T13:10:01.178Z,14.70
2022-09-04T13:12:55.419Z,25.05
2022-09-04T13:15:23.756Z,19.40
2022-09-04T13:18:14.817Z,11.77
2022-09-04T13:20:54.192Z,16.92
2022-09-04T13:23:46.294Z,11.80
2022-09-04T13:26:27.497Z,14.70
2022-09-04T13:29:37.264Z,15.43
2022-09-04T13:32:20.911Z,14.75
2022-09-04T13:35:46.161Z,14.05
2022-09-04T13:39:00.719Z,15.27
2022-09-04T13:41:53.327Z,13.55
2022-09-04T13:44:24.501Z,19.10
2022-09-04T13:46:59.827Z,22.57
2022-09-04T13:49:57.191Z,16.85
2022-09-04T13:52:28.170Z,15.77
2022-09-04T13:55:14.523Z,23.92
2022-09-04T13:58:05.942Z,16.77
2022-09-04T14:00:37.006Z,26.40
2022-09-04T14:03:11.305Z,18.30
2022-09-04T14:05:40.138Z,14.98
2022-09-04T14:08:15.207Z,20.10
2022-09-04T14:11:01.662Z,14.02
2022-09-04T14:13:36.116Z,18.27
2022-09-04T14:16:11.511Z,20.80
2022-09-04T14:18:50.775Z,18.05
2022-09-04T14:21:42.614Z,17.27
2022-09-04T14:24:37.760Z,23.05
2022-09-04T14:27:33.866Z,17.63
2022-09-04T14:30:02.041Z,22.13
2022-09-04T14:32:36.224Z,21.60
2022-09-04T14:35:39.997Z,27.40
2022-09-04T14:38:17.437Z,14.13
2022-09-04T14:41:34.649Z,18.70
2022-09-04T14:44:36.987Z,14.70
2022-09-04T14:47:08.376Z,21.67
2022-09-04T14:49:49.014Z,26.02
2022-09-04T14:52:29.579Z,46.72
2022-09-04T14:54:58.218Z,27.35
2022-09-04T14:58:05.062Z,33.85
2022-09-04T15:00:50.978Z,11.48
2022-09-04T15:03:34.644Z,22.80
2022-09-04T15:06:15.214Z,26.77
2022-09-04T15:08:45.763Z,20.55
2022-09-04T15:11:31.146Z,48.50
2022-09-04T15:14:07.235Z,31.92
2022-09-04T15:16:47.809Z,33.53
2022-09-04T15:19:47.136Z,48.45
2022-09-04T15:22:43.361Z,25.77
2022-09-04T15:25:58.613Z,49.65
2022-09-04T15:28:43.154Z,33.03
2022-09-04T15:31:17.880Z,31.10
2022-09-04T15:33:48.933Z,16.85
2022-09-04T15:36:24.721Z,17.73
2022-09-04T15:38:56.870Z,25.92
2022-09-04T15:41:45.101Z,28.52
2022-09-04T15:44:40.474Z,17.13
2022-09-04T15:47:21.911Z,18.45
2022-09-04T15:49:59.108Z,15.15
2022-09-04T15:52:36.353Z,14.27
2022-09-04T15:55:29.986Z,17.90
2022-09-04T15:58:29.246Z,25.77
2022-09-04T16:01:03.610Z,55.20
2022-09-04T16:03:53.747Z,38.03
2022-09-04T16:06:44.513Z,17.63
2022-09-04T16:09:25.051Z,23.42
2022-09-04T16:12:24.426Z,18.55
2022-09-04T16:15:11.243Z,25.60
2022-09-04T16:17:49.496Z,25.10
2022-09-04T16:20:48.721Z,26.33
2022-09-04T16:23:18.900Z,23.23
2022-09-04T16:25:49.421Z,37.10
2022-09-04T16:28:26.439Z,32.63
2022-09-04T16:30:59.949Z,25.75
2022-09-04T16:34:11.877Z,22.40
2022-09-04T16:36:47.569Z,34.20
2022-09-04T16:39:27.909Z,18.50
2022-09-04T16:42:29.620Z,25.27
2022-09-04T16:45:12.366Z,23.58
2022-09-04T16:48:21.971Z,26.13
2022-09-04T16:51:37.248Z,32.88
2022-09-04T16:54:28.663Z,30.10
2022-09-04T16:57:14.034Z,27.70
2022-09-04T16:59:50.046Z,27.75
2022-09-04T17:02:46.389Z,27.02
2022-09-04T17:05:38.053Z,20.67
2022-09-04T17:08:15.785Z,30.73
2022-09-04T17:10:49.715Z,26.27
2022-09-04T17:13:37.185Z,28.73
2022-09-04T17:16:19.227Z,23.10
2022-09-04T17:18:53.286Z,40.30
2022-09-04T17:27:26.002Z,27.33
2022-09-04T17:29:12.271Z,22.67
2022-09-04T17:29:14.870Z,27.60
2022-09-04T17:30:53.355Z,17.95
2022-09-04T17:40:42.621Z,27.67
2022-09-04T17:40:43.795Z,19.10
2022-09-04T17:41:33.370Z,27.92
2022-09-04T17:42:37.910Z,26.48
2022-09-04T17:45:29.268Z,47.15
2022-09-04T17:48:19.741Z,27.67
2022-09-04T17:50:52.221Z,26.17
2022-09-04T17:53:33.487Z,38.47
2022-09-04T17:56:20.754Z,35.50
2022-09-04T17:59:23.071Z,26.75
2022-09-04T18:02:14.869Z,55.58
2022-09-04T18:04:49.670Z,39.53
2022-09-04T18:08:07.492Z,29.17
2022-09-04T18:10:27.707Z,40.00
2022-09-04T18:13:07.883Z,38.35
2022-09-04T18:16:26.063Z,43.03
2022-09-04T18:18:59.420Z,42.88
2022-09-04T18:21:44.549Z,35.92
2022-09-04T18:24:19.979Z,108.88
2022-09-04T18:27:10.271Z,56.70
2022-09-04T18:34:09.971Z,41.70
2022-09-04T18:37:17.799Z,52.33
2022-09-04T18:48:30.488Z,27.30
2022-09-04T18:50:39.642Z,28.25
2022-09-04T18:50:42.791Z,29.88
2022-09-04T18:51:21.814Z,32.20
2022-09-04T18:53:56.421Z,32.80
2022-09-04T18:56:45.801Z,23.70
2022-09-04T18:59:26.140Z,25.23
2022-09-04T19:02:07.127Z,35.38
2022-09-04T19:04:42.346Z,29.67
2022-09-04T19:07:44.812Z,34.53
2022-09-04T19:10:25.444Z,96.85
2022-09-04T19:13:02.287Z,44.50
2022-09-04T19:15:37.030Z,45.92
2022-09-04T19:18:34.452Z,25.42
2022-09-04T19:21:29.908Z,25.20
2022-09-04T19:24:19.764Z,26.95
2022-09-04T19:27:02.531Z,41.55
2022-09-04T19:29:46.958Z,22.25
2022-09-04T19:32:45.849Z,36.25
2022-09-04T19:35:29.798Z,29.23
2022-09-04T19:42:42.118Z,41.00
2022-09-04T19:46:17.424Z,51.33
2022-09-04T19:46:19.376Z,43.35
2022-09-04T19:47:28.420Z,40.70
2022-09-04T19:53:22.657Z,53.00
2022-09-04T19:53:48.549Z,56.38
2022-09-04T19:56:58.631Z,69.78
2022-09-04T19:59:27.026Z,47.05
2022-09-04T20:02:03.079Z,54.38
2022-09-04T20:04:43.677Z,56.20
2022-09-04T20:07:41.192Z,48.90
2022-09-04T20:10:25.311Z,31.08
2022-09-04T20:13:15.135Z,37.60
2022-09-04T20:16:17.073Z,53.63
2022-09-04T20:18:57.827Z,58.63
2022-09-04T20:21:47.596Z,45.13
2022-09-04T20:24:23.393Z,37.08
2022-09-04T20:27:10.210Z,31.15
2022-09-04T20:30:01.656Z,30.98
2022-09-04T20:33:05.445Z,36.60
2022-09-04T20:35:59.878Z,82.85
2022-09-04T20:38:43.482Z,93.22
2022-09-04T20:41:46.526Z,58.13
2022-09-04T20:44:51.136Z,63.25
2022-09-04T20:52:45.637Z,55.70
2022-09-04T20:52:57.774Z,41.47
2022-09-04T20:53:49.596Z,38.75
2022-09-04T20:58:24.158Z,41.50
2022-09-04T21:03:11.577Z,28.20
2022-09-04T21:03:19.143Z,76.20
2022-09-04T21:06:12.047Z,46.00
2022-09-04T21:08:43.085Z,50.78
2022-09-04T21:11:41.349Z,45.55
2022-09-04T21:14:27.320Z,58.22
2022-09-04T21:17:47.744Z,50.78
2022-09-04T21:20:30.563Z,58.95
2022-09-04T21:23:17.418Z,60.47
2022-09-04T21:26:15.048Z,72.50
2022-09-04T21:29:16.389Z,57.00
2022-09-04T21:32:06.460Z,25.25
2022-09-04T21:35:04.193Z,24.17
2022-09-04T21:37:40.428Z,34.58
2022-09-04T21:40:33.580Z,40.25
2022-09-04T21:43:21.463Z,43.08
2022-09-04T21:46:14.550Z,52.85
2022-09-04T21:48:57.590Z,39.92
2022-09-04T21:52:03.787Z,53.58
2022-09-04T21:56:38.128Z,48.15
2022-09-04T22:02:41.533Z,71.22
2022-09-04T22:02:46.083Z,70.55
2022-09-04T22:03:40.297Z,232.15
2022-09-04T22:07:48.668Z,177.90
2022-09-04T22:13:38.176Z,84.55
2022-09-04T22:13:46.653Z,134.25
2022-09-04T22:15:51.310Z,87.35
2022-09-04T22:18:49.377Z,138.43
2022-09-04T22:21:24.435Z,136.13
2022-09-04T22:23:58.507Z,157.15
2022-09-04T22:27:09.289Z,198.45
2022-09-04T22:29:43.411Z,126.38
2022-09-04T22:32:39.243Z,118.22
2022-09-04T22:35:35.948Z,90.30
2022-09-04T22:38:30.184Z,73.57
2022-09-04T22:41:26.283Z,52.45
2022-09-04T22:44:13.693Z,59.58
2022-09-04T22:47:09.187Z,37.13
2022-09-04T22:50:05.946Z,56.15
2022-09-04T22:53:13.885Z,44.50
2022-09-04T22:56:23.371Z,39.97
2022-09-04T22:59:27.143Z,59.08
2022-09-04T23:02:47.032Z,49.33
2022-09-04T23:06:32.470Z,68.03
2022-09-04T23:13:43.616Z,92.20
2022-09-04T23:13:59.329Z,82.43
2022-09-04T23:15:49.259Z,60.97
2022-09-04T23:21:23.599Z,64.38
2022-09-04T23:26:42.857Z,72.10
2022-09-04T23:26:45.853Z,74.72
2022-09-04T23:27:56.865Z,176.57
2022-09-04T23:30:27.287Z,261.92
2022-09-04T23:33:15.932Z,267.27
2022-09-04T23:36:29.644Z,123.70
2022-09-04T23:39:19.007Z,76.10
2022-09-04T23:42:08.505Z,48.38
2022-09-04T23:45:04.657Z,64.43
2022-09-04T23:47:59.760Z,76.30
2022-09-04T23:50:49.223Z,36.55
2022-09-04T23:53:36.163Z,29.63
2022-09-04T23:56:46.032Z,32.60
2022-09-04T23:59:29.736Z,21.20
